King City, Missouri
Current Conditions -  °F | °C
As of 1:55 PM on Tuesday 21 Oct 2014 (Local Time) from KGPH Reporting Station
Clear Clear  
Wind Chill: 70°   Ceiling: Unl
Heat Index: 70°   Visibility: 10mi
Dew Point: 37°   Wind: 5mph
Humidity: 31%   Direction: 130°SE
Pressure: 30.1"   Gusts: NA
Location:  40.05°N, 94.52°W
Report Text: KGPH 211855Z AUTO 13004KT 10SM CLR 21/03 A3010 RMK AO2
Loading
Personal Weather Stations






























Interactive Weather Map
Tropical Storm Tracking
New forecast layout! Learn more

10-Day Weather Forecast

Advertisements
Track Severe Weather on mobile